Date,TemperatureHighF,TemperatureAvgF,TemperatureLowF,DewpointHighF,DewpointAvgF,DewpointLowF,HumidityHigh,HumidityAvg,HumidityLow,PressureMaxIn,PressureMinIn,WindSpeedMaxMPH,WindSpeedAvgMPH,GustSpeedMaxMPH,PrecipitationSumIn
2013-10-1,73,63,50,59,50,42,80,63,48,29.99,29.88,6,1,12,0.00
2013-10-2,74,64,47,55,48,43,89,58,41,29.99,29.91,10,1,14,0.00
2013-10-3,74,67,53,44,40,34,55,38,25,30.06,29.92,11,1,20,0.00
2013-10-4,79,72,61,39,35,23,30,26,21,30.07,29.95,13,2,23,0.00
2013-10-5,82,70,54,43,36,21,53,28,20,30.17,30.07,8,1,12,0.00
2013-10-6,82,68,47,45,38,20,54,34,26,30.10,29.96,6,0,7,0.00
2013-10-7,80,68,48,49,41,26,61,38,28,29.97,29.83,6,0,9,0.00
2013-10-8,74,68,50,53,45,42,77,45,32,29.88,29.68,10,1,15,0.00
2013-10-9,69,64,52,48,44,43,78,49,43,29.73,29.61,10,1,15,0.00
2013-10-10,64,60,54,50,46,43,80,61,45,29.99,29.73,13,2,21,0.00
2013-10-11,66,59,46,51,48,36,88,67,58,30.07,29.95,6,1,9,0.00
2013-10-12,66,58,39,52,47,30,94,66,49,29.99,29.87,9,1,14,0.00
2013-10-13,71,64,50,54,45,43,86,52,39,30.04,29.89,9,1,13,0.00
2013-10-14,77,66,42,48,43,23,91,45,30,30.10,29.97,7,0,10,0.00
2013-10-15,79,71,47,44,41,38,74,35,24,30.02,29.91,4,0,7,0.00
2013-10-16,80,70,44,43,40,17,72,35,24,30.07,29.96,7,0,10,0.00
2013-10-17,80,70,44,48,41,16,63,36,27,30.06,29.92,5,0,8,0.00
2013-10-18,76,68,47,54,47,38,72,49,31,30.03,29.94,3,0,5,0.00
2013-10-19,80,67,44,52,49,31,90,53,31,30.06,29.95,6,0,8,0.00
2013-10-20,71,54,40,54,46,38,94,78,54,30.00,29.87,2,0,4,0.00
2013-10-21,71,52,40,53,45,37,96,80,48,30.00,29.88,5,0,8,0.01
2013-10-22,75,53,41,53,46,39,97,80,45,30.01,29.89,2,0,4,0.01
2013-10-23,69,50,40,53,45,38,97,84,54,29.97,29.86,6,0,9,0.01
2013-10-24,69,51,41,49,44,39,95,80,48,30.09,29.96,4,0,8,0.01
2013-10-25,74,55,41,52,46,40,97,74,36,30.15,30.05,2,0,4,0.01
2013-10-26,83,58,40,51,45,38,96,68,28,30.13,29.98,2,0,4,0.01
2013-10-27,68,52,40,49,43,38,94,75,42,30.00,29.62,8,1,22,0.00
2013-10-28,70,55,46,46,43,37,85,65,32,29.81,29.64,8,1,21,0.00
2013-10-29,63,53,45,46,44,41,87,72,49,30.04,29.81,5,0,12,0.00
2013-10-30,69,52,38,50,42,36,96,72,44,30.14,30.04,2,0,6,0.00
2013-10-31,69,48,39,49,41,36,94,78,47,30.17,30.10,2,0,4,0.00